sensor_id;sensor_type;location;lat;lon;timestamp;temperature;humidity
33207;DHT22;19565;46.602;11.534;2023-02-26T00:01:43;8.20;56.90
33207;DHT22;19565;46.602;11.534;2023-02-26T00:04:11;8.20;56.70
33207;DHT22;19565;46.602;11.534;2023-02-26T00:06:40;8.30;56.40
33207;DHT22;19565;46.602;11.534;2023-02-26T00:09:21;8.20;56.10
33207;DHT22;19565;46.602;11.534;2023-02-26T00:11:51;8.20;56.20
33207;DHT22;19565;46.602;11.534;2023-02-26T00:14:20;8.20;55.90
33207;DHT22;19565;46.602;11.534;2023-02-26T00:16:53;8.20;56.40
33207;DHT22;19565;46.602;11.534;2023-02-26T00:19:24;8.30;55.60
33207;DHT22;19565;46.602;11.534;2023-02-26T00:21:52;8.30;55.50
33207;DHT22;19565;46.602;11.534;2023-02-26T00:24:21;8.30;55.50
33207;DHT22;19565;46.602;11.534;2023-02-26T00:26:49;8.30;55.60
33207;DHT22;19565;46.602;11.534;2023-02-26T00:29:19;8.30;55.30
33207;DHT22;19565;46.602;11.534;2023-02-26T00:31:47;8.20;55.30
33207;DHT22;19565;46.602;11.534;2023-02-26T00:34:16;8.20;55.20
33207;DHT22;19565;46.602;11.534;2023-02-26T00:36:48;8.10;55.10
33207;DHT22;19565;46.602;11.534;2023-02-26T00:39:31;8.10;54.50
33207;DHT22;19565;46.602;11.534;2023-02-26T00:42:03;8.10;54.30
33207;DHT22;19565;46.602;11.534;2023-02-26T00:44:33;8.10;54.90
33207;DHT22;19565;46.602;11.534;2023-02-26T00:47:07;8.00;55.30
33207;DHT22;19565;46.602;11.534;2023-02-26T00:49:48;8.10;55.50
33207;DHT22;19565;46.602;11.534;2023-02-26T00:52:25;8.20;55.30
33207;DHT22;19565;46.602;11.534;2023-02-26T00:54:55;8.10;54.20
33207;DHT22;19565;46.602;11.534;2023-02-26T00:57:23;8.10;54.00
33207;DHT22;19565;46.602;11.534;2023-02-26T00:59:52;8.20;53.80
33207;DHT22;19565;46.602;11.534;2023-02-26T01:02:20;8.10;53.60
33207;DHT22;19565;46.602;11.534;2023-02-26T01:04:49;8.10;53.10
33207;DHT22;19565;46.602;11.534;2023-02-26T01:07:20;8.10;53.20
33207;DHT22;19565;46.602;11.534;2023-02-26T01:09:49;8.10;53.10
33207;DHT22;19565;46.602;11.534;2023-02-26T01:12:18;8.10;53.00
33207;DHT22;19565;46.602;11.534;2023-02-26T01:14:46;8.10;52.90
33207;DHT22;19565;46.602;11.534;2023-02-26T01:17:22;8.10;53.60
33207;DHT22;19565;46.602;11.534;2023-02-26T01:19:53;8.20;53.70
33207;DHT22;19565;46.602;11.534;2023-02-26T01:22:26;8.20;53.40
33207;DHT22;19565;46.602;11.534;2023-02-26T01:25:02;8.10;53.50
33207;DHT22;19565;46.602;11.534;2023-02-26T01:27:31;8.00;53.30
33207;DHT22;19565;46.602;11.534;2023-02-26T01:30:00;7.90;53.50
33207;DHT22;19565;46.602;11.534;2023-02-26T01:32:40;7.80;53.30
33207;DHT22;19565;46.602;11.534;2023-02-26T01:35:20;7.70;53.30
33207;DHT22;19565;46.602;11.534;2023-02-26T01:37:58;7.70;53.30
33207;DHT22;19565;46.602;11.534;2023-02-26T01:40:35;7.80;54.00
33207;DHT22;19565;46.602;11.534;2023-02-26T01:43:14;7.70;53.30
33207;DHT22;19565;46.602;11.534;2023-02-26T01:45:56;7.80;52.80
33207;DHT22;19565;46.602;11.534;2023-02-26T01:48:35;7.90;53.40
33207;DHT22;19565;46.602;11.534;2023-02-26T01:51:04;7.90;52.80
33207;DHT22;19565;46.602;11.534;2023-02-26T01:53:32;7.80;53.10
33207;DHT22;19565;46.602;11.534;2023-02-26T01:56:02;7.80;53.30
33207;DHT22;19565;46.602;11.534;2023-02-26T01:58:34;7.80;53.30
33207;DHT22;19565;46.602;11.534;2023-02-26T02:01:04;7.70;53.00
33207;DHT22;19565;46.602;11.534;2023-02-26T02:03:37;7.70;52.90
33207;DHT22;19565;46.602;11.534;2023-02-26T02:06:08;7.60;52.80
33207;DHT22;19565;46.602;11.534;2023-02-26T02:08:37;7.60;53.20
33207;DHT22;19565;46.602;11.534;2023-02-26T02:11:07;7.70;53.20
33207;DHT22;19565;46.602;11.534;2023-02-26T02:13:55;7.80;53.20
33207;DHT22;19565;46.602;11.534;2023-02-26T02:16:31;7.80;52.00
33207;DHT22;19565;46.602;11.534;2023-02-26T02:19:16;7.70;52.00
33207;DHT22;19565;46.602;11.534;2023-02-26T02:21:57;7.70;52.70
33207;DHT22;19565;46.602;11.534;2023-02-26T02:24:36;7.70;52.70
33207;DHT22;19565;46.602;11.534;2023-02-26T02:27:17;7.70;52.50
33207;DHT22;19565;46.602;11.534;2023-02-26T02:30:05;8.00;53.30
33207;DHT22;19565;46.602;11.534;2023-02-26T02:32:44;7.90;52.60
33207;DHT22;19565;46.602;11.534;2023-02-26T02:35:19;7.70;52.30
33207;DHT22;19565;46.602;11.534;2023-02-26T02:37:53;7.70;52.00
33207;DHT22;19565;46.602;11.534;2023-02-26T02:40:26;7.70;52.10
33207;DHT22;19565;46.602;11.534;2023-02-26T02:43:00;7.70;51.70
33207;DHT22;19565;46.602;11.534;2023-02-26T02:45:34;7.50;51.90
33207;DHT22;19565;46.602;11.534;2023-02-26T02:48:11;7.40;52.00
33207;DHT22;19565;46.602;11.534;2023-02-26T02:50:43;7.50;52.20
33207;DHT22;19565;46.602;11.534;2023-02-26T02:53:16;7.40;52.50
33207;DHT22;19565;46.602;11.534;2023-02-26T02:55:49;7.50;52.40
33207;DHT22;19565;46.602;11.534;2023-02-26T02:58:22;7.60;52.40
33207;DHT22;19565;46.602;11.534;2023-02-26T03:00:55;7.60;52.00
33207;DHT22;19565;46.602;11.534;2023-02-26T03:03:29;7.40;52.30
33207;DHT22;19565;46.602;11.534;2023-02-26T03:05:58;7.40;52.20
33207;DHT22;19565;46.602;11.534;2023-02-26T03:08:29;7.40;52.30
33207;DHT22;19565;46.602;11.534;2023-02-26T03:10:58;7.30;52.60
33207;DHT22;19565;46.602;11.534;2023-02-26T03:13:26;7.30;52.80
33207;DHT22;19565;46.602;11.534;2023-02-26T03:16:01;7.30;52.70
33207;DHT22;19565;46.602;11.534;2023-02-26T03:18:44;7.30;52.70
33207;DHT22;19565;46.602;11.534;2023-02-26T03:21:20;7.10;52.70
33207;DHT22;19565;46.602;11.534;2023-02-26T03:23:54;7.10;53.10
33207;DHT22;19565;46.602;11.534;2023-02-26T03:26:28;7.20;53.90
33207;DHT22;19565;46.602;11.534;2023-02-26T03:29:01;7.20;53.20
33207;DHT22;19565;46.602;11.534;2023-02-26T03:31:36;7.00;53.30
33207;DHT22;19565;46.602;11.534;2023-02-26T03:34:14;7.10;53.50
33207;DHT22;19565;46.602;11.534;2023-02-26T03:36:47;7.10;53.70
33207;DHT22;19565;46.602;11.534;2023-02-26T03:39:20;7.10;53.70
33207;DHT22;19565;46.602;11.534;2023-02-26T03:41:52;7.10;53.00
33207;DHT22;19565;46.602;11.534;2023-02-26T03:44:24;7.20;53.50
33207;DHT22;19565;46.602;11.534;2023-02-26T03:46:56;7.30;54.30
33207;DHT22;19565;46.602;11.534;2023-02-26T03:49:30;7.30;53.60
33207;DHT22;19565;46.602;11.534;2023-02-26T03:52:00;7.40;53.80
33207;DHT22;19565;46.602;11.534;2023-02-26T03:54:32;7.60;54.60
33207;DHT22;19565;46.602;11.534;2023-02-26T03:57:01;7.70;54.70
33207;DHT22;19565;46.602;11.534;2023-02-26T03:59:30;7.60;53.40
33207;DHT22;19565;46.602;11.534;2023-02-26T04:02:01;7.70;54.30
33207;DHT22;19565;46.602;11.534;2023-02-26T04:04:34;7.90;55.20
33207;DHT22;19565;46.602;11.534;2023-02-26T04:07:08;7.90;54.60
33207;DHT22;19565;46.602;11.534;2023-02-26T04:09:39;8.00;54.80
33207;DHT22;19565;46.602;11.534;2023-02-26T04:12:07;8.10;55.40
33207;DHT22;19565;46.602;11.534;2023-02-26T04:14:35;8.10;55.40
33207;DHT22;19565;46.602;11.534;2023-02-26T04:17:04;8.10;55.10
33207;DHT22;19565;46.602;11.534;2023-02-26T04:19:33;8.20;55.20
33207;DHT22;19565;46.602;11.534;2023-02-26T04:22:01;8.20;55.10
33207;DHT22;19565;46.602;11.534;2023-02-26T04:24:29;8.20;54.60
33207;DHT22;19565;46.602;11.534;2023-02-26T04:26:57;8.20;54.10
33207;DHT22;19565;46.602;11.534;2023-02-26T04:29:25;8.10;54.00
33207;DHT22;19565;46.602;11.534;2023-02-26T04:31:54;8.10;54.20
33207;DHT22;19565;46.602;11.534;2023-02-26T04:34:22;8.10;54.00
33207;DHT22;19565;46.602;11.534;2023-02-26T04:36:51;7.70;50.80
33207;DHT22;19565;46.602;11.534;2023-02-26T04:39:20;7.40;50.30
33207;DHT22;19565;46.602;11.534;2023-02-26T04:41:48;7.30;51.20
33207;DHT22;19565;46.602;11.534;2023-02-26T04:44:16;7.40;50.90
33207;DHT22;19565;46.602;11.534;2023-02-26T04:46:44;7.50;51.70
33207;DHT22;19565;46.602;11.534;2023-02-26T04:49:12;7.50;50.90
33207;DHT22;19565;46.602;11.534;2023-02-26T04:51:40;7.70;52.00
33207;DHT22;19565;46.602;11.534;2023-02-26T04:54:09;7.90;52.40
33207;DHT22;19565;46.602;11.534;2023-02-26T04:56:37;7.80;51.60
33207;DHT22;19565;46.602;11.534;2023-02-26T04:59:05;7.80;52.00
33207;DHT22;19565;46.602;11.534;2023-02-26T05:01:33;7.90;52.80
33207;DHT22;19565;46.602;11.534;2023-02-26T05:04:01;7.90;52.60
33207;DHT22;19565;46.602;11.534;2023-02-26T05:06:29;7.90;52.80
33207;DHT22;19565;46.602;11.534;2023-02-26T05:08:57;8.00;53.30
33207;DHT22;19565;46.602;11.534;2023-02-26T05:11:27;8.00;53.60
33207;DHT22;19565;46.602;11.534;2023-02-26T05:13:55;7.90;53.40
33207;DHT22;19565;46.602;11.534;2023-02-26T05:16:23;7.90;53.80
33207;DHT22;19565;46.602;11.534;2023-02-26T05:18:51;7.80;53.30
33207;DHT22;19565;46.602;11.534;2023-02-26T05:21:19;7.80;53.60
33207;DHT22;19565;46.602;11.534;2023-02-26T05:23:50;7.90;54.40
33207;DHT22;19565;46.602;11.534;2023-02-26T05:26:18;7.80;53.70
33207;DHT22;19565;46.602;11.534;2023-02-26T05:28:47;7.80;54.80
33207;DHT22;19565;46.602;11.534;2023-02-26T05:31:15;7.90;55.10
33207;DHT22;19565;46.602;11.534;2023-02-26T05:33:43;7.90;54.80
33207;DHT22;19565;46.602;11.534;2023-02-26T05:36:12;7.90;55.40
33207;DHT22;19565;46.602;11.534;2023-02-26T05:38:40;7.80;54.60
33207;DHT22;19565;46.602;11.534;2023-02-26T05:41:08;7.80;54.50
33207;DHT22;19565;46.602;11.534;2023-02-26T05:43:36;7.80;55.30
33207;DHT22;19565;46.602;11.534;2023-02-26T05:46:06;7.80;55.40
33207;DHT22;19565;46.602;11.534;2023-02-26T05:48:34;7.70;55.20
33207;DHT22;19565;46.602;11.534;2023-02-26T05:51:02;7.70;56.30
33207;DHT22;19565;46.602;11.534;2023-02-26T05:53:30;7.70;56.50
33207;DHT22;19565;46.602;11.534;2023-02-26T05:55:58;7.70;56.80
33207;DHT22;19565;46.602;11.534;2023-02-26T05:58:26;7.70;56.60
33207;DHT22;19565;46.602;11.534;2023-02-26T06:00:57;7.60;56.00
33207;DHT22;19565;46.602;11.534;2023-02-26T06:03:26;7.50;56.30
33207;DHT22;19565;46.602;11.534;2023-02-26T06:05:54;7.60;56.50
33207;DHT22;19565;46.602;11.534;2023-02-26T06:08:23;7.60;57.10
33207;DHT22;19565;46.602;11.534;2023-02-26T06:10:51;7.60;57.10
33207;DHT22;19565;46.602;11.534;2023-02-26T06:13:19;7.50;56.50
33207;DHT22;19565;46.602;11.534;2023-02-26T06:15:49;7.50;56.70
33207;DHT22;19565;46.602;11.534;2023-02-26T06:18:17;7.50;56.70
33207;DHT22;19565;46.602;11.534;2023-02-26T06:20:47;7.40;56.80
33207;DHT22;19565;46.602;11.534;2023-02-26T06:23:15;7.50;57.40
33207;DHT22;19565;46.602;11.534;2023-02-26T06:25:43;7.50;57.30
33207;DHT22;19565;46.602;11.534;2023-02-26T06:28:11;7.50;57.20
33207;DHT22;19565;46.602;11.534;2023-02-26T06:30:39;7.40;57.20
33207;DHT22;19565;46.602;11.534;2023-02-26T06:33:07;7.50;56.90
33207;DHT22;19565;46.602;11.534;2023-02-26T06:35:35;7.40;56.50
33207;DHT22;19565;46.602;11.534;2023-02-26T06:38:05;7.40;56.70
33207;DHT22;19565;46.602;11.534;2023-02-26T06:40:32;7.30;56.60
33207;DHT22;19565;46.602;11.534;2023-02-26T06:43:00;7.40;56.50
33207;DHT22;19565;46.602;11.534;2023-02-26T06:45:28;7.40;56.60
33207;DHT22;19565;46.602;11.534;2023-02-26T06:47:57;7.30;56.40
33207;DHT22;19565;46.602;11.534;2023-02-26T06:50:25;7.40;57.10
33207;DHT22;19565;46.602;11.534;2023-02-26T06:52:53;7.40;56.20
33207;DHT22;19565;46.602;11.534;2023-02-26T06:55:22;7.40;55.80
33207;DHT22;19565;46.602;11.534;2023-02-26T06:57:52;7.30;56.30
33207;DHT22;19565;46.602;11.534;2023-02-26T07:00:21;7.00;55.30
33207;DHT22;19565;46.602;11.534;2023-02-26T07:02:49;7.10;56.00
33207;DHT22;19565;46.602;11.534;2023-02-26T07:05:18;7.20;56.50
33207;DHT22;19565;46.602;11.534;2023-02-26T07:07:46;7.10;56.20
33207;DHT22;19565;46.602;11.534;2023-02-26T07:10:14;7.20;56.70
33207;DHT22;19565;46.602;11.534;2023-02-26T07:12:43;7.20;57.30
33207;DHT22;19565;46.602;11.534;2023-02-26T07:15:11;7.30;56.60
33207;DHT22;19565;46.602;11.534;2023-02-26T07:17:39;7.30;56.40
33207;DHT22;19565;46.602;11.534;2023-02-26T07:20:08;7.30;56.30
33207;DHT22;19565;46.602;11.534;2023-02-26T07:22:37;7.20;56.00
33207;DHT22;19565;46.602;11.534;2023-02-26T07:25:06;7.20;55.40
33207;DHT22;19565;46.602;11.534;2023-02-26T07:27:34;6.90;55.40
33207;DHT22;19565;46.602;11.534;2023-02-26T07:30:05;6.60;55.20
33207;DHT22;19565;46.602;11.534;2023-02-26T07:32:33;6.60;56.70
33207;DHT22;19565;46.602;11.534;2023-02-26T07:35:01;6.70;57.30
33207;DHT22;19565;46.602;11.534;2023-02-26T07:37:30;6.90;57.50
33207;DHT22;19565;46.602;11.534;2023-02-26T07:39:58;6.90;55.90
33207;DHT22;19565;46.602;11.534;2023-02-26T07:42:26;7.00;55.90
33207;DHT22;19565;46.602;11.534;2023-02-26T07:44:54;7.00;56.30
33207;DHT22;19565;46.602;11.534;2023-02-26T07:47:23;7.10;55.90
33207;DHT22;19565;46.602;11.534;2023-02-26T07:49:51;7.10;53.90
33207;DHT22;19565;46.602;11.534;2023-02-26T07:52:19;7.00;52.90
33207;DHT22;19565;46.602;11.534;2023-02-26T07:54:47;6.70;52.60
33207;DHT22;19565;46.602;11.534;2023-02-26T07:57:15;6.30;51.70
33207;DHT22;19565;46.602;11.534;2023-02-26T07:59:43;6.50;53.10
33207;DHT22;19565;46.602;11.534;2023-02-26T08:02:12;6.50;52.50
33207;DHT22;19565;46.602;11.534;2023-02-26T08:04:41;6.70;53.10
33207;DHT22;19565;46.602;11.534;2023-02-26T08:07:09;6.60;51.50
33207;DHT22;19565;46.602;11.534;2023-02-26T08:09:37;6.40;51.30
33207;DHT22;19565;46.602;11.534;2023-02-26T08:12:05;6.60;52.80
33207;DHT22;19565;46.602;11.534;2023-02-26T08:14:33;6.60;50.10
33207;DHT22;19565;46.602;11.534;2023-02-26T08:17:01;6.60;51.00
33207;DHT22;19565;46.602;11.534;2023-02-26T08:19:29;6.60;51.10
33207;DHT22;19565;46.602;11.534;2023-02-26T08:21:59;6.70;51.80
33207;DHT22;19565;46.602;11.534;2023-02-26T08:24:27;6.60;50.20
33207;DHT22;19565;46.602;11.534;2023-02-26T08:26:55;6.50;50.60
33207;DHT22;19565;46.602;11.534;2023-02-26T08:29:24;6.60;50.30
33207;DHT22;19565;46.602;11.534;2023-02-26T08:31:52;6.70;50.20
33207;DHT22;19565;46.602;11.534;2023-02-26T08:34:20;6.50;50.30
33207;DHT22;19565;46.602;11.534;2023-02-26T08:36:48;6.30;49.40
33207;DHT22;19565;46.602;11.534;2023-02-26T08:39:18;6.20;50.00
33207;DHT22;19565;46.602;11.534;2023-02-26T08:41:46;6.20;50.00
33207;DHT22;19565;46.602;11.534;2023-02-26T08:44:14;6.00;49.70
33207;DHT22;19565;46.602;11.534;2023-02-26T08:46:42;6.00;49.90
33207;DHT22;19565;46.602;11.534;2023-02-26T08:49:10;6.10;49.60
33207;DHT22;19565;46.602;11.534;2023-02-26T08:51:38;6.10;49.20
33207;DHT22;19565;46.602;11.534;2023-02-26T08:54:06;6.10;49.30
33207;DHT22;19565;46.602;11.534;2023-02-26T08:56:36;6.20;49.50
33207;DHT22;19565;46.602;11.534;2023-02-26T08:59:05;6.20;49.20
33207;DHT22;19565;46.602;11.534;2023-02-26T09:01:33;6.30;49.10
33207;DHT22;19565;46.602;11.534;2023-02-26T09:04:01;6.30;49.30
33207;DHT22;19565;46.602;11.534;2023-02-26T09:06:30;6.20;48.60
33207;DHT22;19565;46.602;11.534;2023-02-26T09:08:58;6.20;47.90
33207;DHT22;19565;46.602;11.534;2023-02-26T09:11:26;6.20;48.50
33207;DHT22;19565;46.602;11.534;2023-02-26T09:13:58;6.40;47.70
33207;DHT22;19565;46.602;11.534;2023-02-26T09:16:28;6.40;47.20
33207;DHT22;19565;46.602;11.534;2023-02-26T09:18:56;6.30;47.50
33207;DHT22;19565;46.602;11.534;2023-02-26T09:21:24;6.30;47.60
33207;DHT22;19565;46.602;11.534;2023-02-26T09:23:52;6.40;47.80
33207;DHT22;19565;46.602;11.534;2023-02-26T09:26:20;6.50;47.90
33207;DHT22;19565;46.602;11.534;2023-02-26T09:28:49;6.40;47.10
33207;DHT22;19565;46.602;11.534;2023-02-26T09:31:18;6.50;47.30
33207;DHT22;19565;46.602;11.534;2023-02-26T09:33:46;6.60;47.10
33207;DHT22;19565;46.602;11.534;2023-02-26T09:36:14;6.60;46.90
33207;DHT22;19565;46.602;11.534;2023-02-26T09:38:42;6.70;46.20
33207;DHT22;19565;46.602;11.534;2023-02-26T09:41:18;6.60;46.10
33207;DHT22;19565;46.602;11.534;2023-02-26T09:44:14;6.60;46.60
33207;DHT22;19565;46.602;11.534;2023-02-26T09:46:53;6.60;46.00
33207;DHT22;19565;46.602;11.534;2023-02-26T09:49:30;6.70;46.10
33207;DHT22;19565;46.602;11.534;2023-02-26T09:52:02;6.70;46.00
33207;DHT22;19565;46.602;11.534;2023-02-26T09:54:35;6.80;45.50
33207;DHT22;19565;46.602;11.534;2023-02-26T09:57:11;6.80;45.10
33207;DHT22;19565;46.602;11.534;2023-02-26T09:59:41;6.80;44.20
33207;DHT22;19565;46.602;11.534;2023-02-26T10:02:16;6.80;44.00
33207;DHT22;19565;46.602;11.534;2023-02-26T10:04:50;6.70;43.50
33207;DHT22;19565;46.602;11.534;2023-02-26T10:07:29;6.70;43.60
33207;DHT22;19565;46.602;11.534;2023-02-26T10:10:08;6.80;43.60
33207;DHT22;19565;46.602;11.534;2023-02-26T10:12:40;7.00;44.00
33207;DHT22;19565;46.602;11.534;2023-02-26T10:15:12;7.00;43.50
33207;DHT22;19565;46.602;11.534;2023-02-26T10:17:51;7.00;43.20
33207;DHT22;19565;46.602;11.534;2023-02-26T10:20:24;7.10;43.40
33207;DHT22;19565;46.602;11.534;2023-02-26T10:22:58;6.90;43.00
33207;DHT22;19565;46.602;11.534;2023-02-26T10:25:32;6.80;42.70
33207;DHT22;19565;46.602;11.534;2023-02-26T10:28:19;7.00;43.00
33207;DHT22;19565;46.602;11.534;2023-02-26T10:30:55;7.10;42.60
33207;DHT22;19565;46.602;11.534;2023-02-26T10:33:35;6.90;42.10
33207;DHT22;19565;46.602;11.534;2023-02-26T10:36:12;7.10;42.10
33207;DHT22;19565;46.602;11.534;2023-02-26T10:38:42;7.00;42.10
33207;DHT22;19565;46.602;11.534;2023-02-26T10:41:15;7.10;42.60
33207;DHT22;19565;46.602;11.534;2023-02-26T10:43:48;7.20;42.90
33207;DHT22;19565;46.602;11.534;2023-02-26T10:46:24;7.20;41.60
33207;DHT22;19565;46.602;11.534;2023-02-26T10:49:20;7.20;41.50
33207;DHT22;19565;46.602;11.534;2023-02-26T10:51:50;7.20;41.50
33207;DHT22;19565;46.602;11.534;2023-02-26T10:54:24;7.30;41.30
33207;DHT22;19565;46.602;11.534;2023-02-26T10:56:54;7.30;41.20
33207;DHT22;19565;46.602;11.534;2023-02-26T10:59:22;7.30;41.00
33207;DHT22;19565;46.602;11.534;2023-02-26T11:01:51;7.10;41.70
33207;DHT22;19565;46.602;11.534;2023-02-26T11:04:22;7.10;40.80
33207;DHT22;19565;46.602;11.534;2023-02-26T11:06:54;7.00;40.70
33207;DHT22;19565;46.602;11.534;2023-02-26T11:09:24;7.10;40.90
33207;DHT22;19565;46.602;11.534;2023-02-26T11:11:55;7.10;40.50
33207;DHT22;19565;46.602;11.534;2023-02-26T11:14:28;7.20;42.40
33207;DHT22;19565;46.602;11.534;2023-02-26T11:17:00;7.20;40.90
33207;DHT22;19565;46.602;11.534;2023-02-26T11:19:34;7.10;40.70
33207;DHT22;19565;46.602;11.534;2023-02-26T11:22:04;7.20;41.10
33207;DHT22;19565;46.602;11.534;2023-02-26T11:24:37;7.10;41.40
33207;DHT22;19565;46.602;11.534;2023-02-26T11:27:11;7.10;41.20
33207;DHT22;19565;46.602;11.534;2023-02-26T11:29:41;7.10;41.20
33207;DHT22;19565;46.602;11.534;2023-02-26T11:32:16;7.00;41.20
33207;DHT22;19565;46.602;11.534;2023-02-26T11:34:48;7.00;41.10
33207;DHT22;19565;46.602;11.534;2023-02-26T11:37:18;7.10;41.00
33207;DHT22;19565;46.602;11.534;2023-02-26T11:39:52;7.20;41.20
33207;DHT22;19565;46.602;11.534;2023-02-26T11:42:21;7.20;41.60
33207;DHT22;19565;46.602;11.534;2023-02-26T11:44:50;7.20;41.20
33207;DHT22;19565;46.602;11.534;2023-02-26T11:47:23;7.20;41.30
33207;DHT22;19565;46.602;11.534;2023-02-26T11:49:55;7.30;42.00
33207;DHT22;19565;46.602;11.534;2023-02-26T11:52:31;7.20;41.90
33207;DHT22;19565;46.602;11.534;2023-02-26T11:55:01;7.30;42.20
33207;DHT22;19565;46.602;11.534;2023-02-26T11:57:31;7.10;41.40
33207;DHT22;19565;46.602;11.534;2023-02-26T12:00:02;7.00;41.80
33207;DHT22;19565;46.602;11.534;2023-02-26T12:02:42;7.00;41.90
33207;DHT22;19565;46.602;11.534;2023-02-26T12:05:14;7.10;41.90
33207;DHT22;19565;46.602;11.534;2023-02-26T12:07:43;7.00;41.70
33207;DHT22;19565;46.602;11.534;2023-02-26T12:10:14;7.00;42.10
33207;DHT22;19565;46.602;11.534;2023-02-26T12:13:02;7.20;42.50
33207;DHT22;19565;46.602;11.534;2023-02-26T12:15:34;7.30;41.80
33207;DHT22;19565;46.602;11.534;2023-02-26T12:18:34;7.20;41.70
33207;DHT22;19565;46.602;11.534;2023-02-26T12:21:16;7.10;41.80
33207;DHT22;19565;46.602;11.534;2023-02-26T12:24:10;7.20;42.10
33207;DHT22;19565;46.602;11.534;2023-02-26T12:26:41;7.20;41.90
33207;DHT22;19565;46.602;11.534;2023-02-26T12:32:24;7.00;42.20
33207;DHT22;19565;46.602;11.534;2023-02-26T12:35:14;7.10;42.00
33207;DHT22;19565;46.602;11.534;2023-02-26T12:37:53;7.20;42.40
33207;DHT22;19565;46.602;11.534;2023-02-26T12:43:29;7.30;42.10
33207;DHT22;19565;46.602;11.534;2023-02-26T12:46:07;7.20;41.90
33207;DHT22;19565;46.602;11.534;2023-02-26T12:49:09;7.30;41.50
33207;DHT22;19565;46.602;11.534;2023-02-26T12:51:54;7.20;41.90
33207;DHT22;19565;46.602;11.534;2023-02-26T12:54:47;7.00;41.90
33207;DHT22;19565;46.602;11.534;2023-02-26T13:00:23;7.10;42.00
33207;DHT22;19565;46.602;11.534;2023-02-26T13:03:18;7.20;42.70
33207;DHT22;19565;46.602;11.534;2023-02-26T13:06:13;7.30;43.00
33207;DHT22;19565;46.602;11.534;2023-02-26T13:08:53;7.10;42.40
33207;DHT22;19565;46.602;11.534;2023-02-26T13:11:38;7.20;42.60
33207;DHT22;19565;46.602;11.534;2023-02-26T13:14:20;7.20;41.90
33207;DHT22;19565;46.602;11.534;2023-02-26T13:16:57;7.10;41.70
33207;DHT22;19565;46.602;11.534;2023-02-26T13:19:35;7.10;42.10
33207;DHT22;19565;46.602;11.534;2023-02-26T13:22:16;7.10;42.20
33207;DHT22;19565;46.602;11.534;2023-02-26T13:24:49;7.10;42.10
33207;DHT22;19565;46.602;11.534;2023-02-26T13:27:24;7.20;42.50
33207;DHT22;19565;46.602;11.534;2023-02-26T13:30:05;7.10;42.00
33207;DHT22;19565;46.602;11.534;2023-02-26T13:32:37;7.20;42.10
33207;DHT22;19565;46.602;11.534;2023-02-26T13:35:18;7.10;41.80
33207;DHT22;19565;46.602;11.534;2023-02-26T13:37:49;7.10;42.50
33207;DHT22;19565;46.602;11.534;2023-02-26T13:40:51;7.20;42.50
33207;DHT22;19565;46.602;11.534;2023-02-26T13:43:35;7.20;42.60
33207;DHT22;19565;46.602;11.534;2023-02-26T13:46:17;7.20;42.10
33207;DHT22;19565;46.602;11.534;2023-02-26T13:48:55;7.10;42.30
33207;DHT22;19565;46.602;11.534;2023-02-26T13:51:33;7.10;42.10
33207;DHT22;19565;46.602;11.534;2023-02-26T13:54:02;7.00;41.80
33207;DHT22;19565;46.602;11.534;2023-02-26T13:56:51;7.10;42.30
33207;DHT22;19565;46.602;11.534;2023-02-26T13:59:31;7.20;42.80
33207;DHT22;19565;46.602;11.534;2023-02-26T14:05:31;7.20;42.50
33207;DHT22;19565;46.602;11.534;2023-02-26T14:08:24;7.20;42.50
33207;DHT22;19565;46.602;11.534;2023-02-26T14:10:56;7.20;42.80
33207;DHT22;19565;46.602;11.534;2023-02-26T14:13:33;7.40;42.40
33207;DHT22;19565;46.602;11.534;2023-02-26T14:16:10;7.20;42.70
33207;DHT22;19565;46.602;11.534;2023-02-26T14:18:42;7.20;42.20
33207;DHT22;19565;46.602;11.534;2023-02-26T14:21:42;7.20;42.20
33207;DHT22;19565;46.602;11.534;2023-02-26T14:24:15;7.20;42.30
33207;DHT22;19565;46.602;11.534;2023-02-26T14:26:48;7.20;42.20
33207;DHT22;19565;46.602;11.534;2023-02-26T14:29:20;7.30;43.10
33207;DHT22;19565;46.602;11.534;2023-02-26T14:32:04;7.40;43.00
33207;DHT22;19565;46.602;11.534;2023-02-26T14:34:48;7.50;43.10
33207;DHT22;19565;46.602;11.534;2023-02-26T14:37:21;7.40;43.10
33207;DHT22;19565;46.602;11.534;2023-02-26T14:39:54;7.10;42.40
33207;DHT22;19565;46.602;11.534;2023-02-26T14:42:31;6.80;42.90
33207;DHT22;19565;46.602;11.534;2023-02-26T14:45:08;7.00;43.20
33207;DHT22;19565;46.602;11.534;2023-02-26T14:47:37;7.10;43.40
33207;DHT22;19565;46.602;11.534;2023-02-26T14:50:06;7.20;44.00
33207;DHT22;19565;46.602;11.534;2023-02-26T14:53:07;7.30;44.30
33207;DHT22;19565;46.602;11.534;2023-02-26T14:55:57;7.40;44.50
33207;DHT22;19565;46.602;11.534;2023-02-26T14:58:49;7.40;44.40
33207;DHT22;19565;46.602;11.534;2023-02-26T15:01:35;7.20;44.40
33207;DHT22;19565;46.602;11.534;2023-02-26T15:04:17;7.10;45.00
33207;DHT22;19565;46.602;11.534;2023-02-26T15:07:10;7.00;44.20
33207;DHT22;19565;46.602;11.534;2023-02-26T15:09:52;6.90;45.00
33207;DHT22;19565;46.602;11.534;2023-02-26T15:12:35;6.90;45.10
33207;DHT22;19565;46.602;11.534;2023-02-26T15:15:16;6.80;45.00
33207;DHT22;19565;46.602;11.534;2023-02-26T15:17:59;6.80;45.00
33207;DHT22;19565;46.602;11.534;2023-02-26T15:20:35;6.80;45.40
33207;DHT22;19565;46.602;11.534;2023-02-26T15:23:26;6.90;45.30
33207;DHT22;19565;46.602;11.534;2023-02-26T15:25:58;6.80;45.50
33207;DHT22;19565;46.602;11.534;2023-02-26T15:28:29;6.50;45.40
33207;DHT22;19565;46.602;11.534;2023-02-26T15:30:59;6.50;45.60
33207;DHT22;19565;46.602;11.534;2023-02-26T15:33:28;6.50;45.40
33207;DHT22;19565;46.602;11.534;2023-02-26T15:35:57;6.70;45.30
33207;DHT22;19565;46.602;11.534;2023-02-26T15:38:25;6.90;45.40
33207;DHT22;19565;46.602;11.534;2023-02-26T15:41:02;7.00;45.90
33207;DHT22;19565;46.602;11.534;2023-02-26T15:43:30;6.70;45.50
33207;DHT22;19565;46.602;11.534;2023-02-26T15:45:58;6.80;45.60
33207;DHT22;19565;46.602;11.534;2023-02-26T15:48:30;6.70;46.00
33207;DHT22;19565;46.602;11.534;2023-02-26T15:51:00;6.50;46.40
33207;DHT22;19565;46.602;11.534;2023-02-26T15:53:31;6.40;47.10
33207;DHT22;19565;46.602;11.534;2023-02-26T15:56:05;6.50;47.10
33207;DHT22;19565;46.602;11.534;2023-02-26T15:58:38;6.50;47.20
33207;DHT22;19565;46.602;11.534;2023-02-26T16:01:14;6.40;47.30
33207;DHT22;19565;46.602;11.534;2023-02-26T16:03:44;6.40;47.30
33207;DHT22;19565;46.602;11.534;2023-02-26T16:06:15;6.60;47.70
33207;DHT22;19565;46.602;11.534;2023-02-26T16:08:43;6.60;47.30
33207;DHT22;19565;46.602;11.534;2023-02-26T16:11:13;6.50;47.70
33207;DHT22;19565;46.602;11.534;2023-02-26T16:13:43;6.30;48.00
33207;DHT22;19565;46.602;11.534;2023-02-26T16:16:16;6.30;48.50
33207;DHT22;19565;46.602;11.534;2023-02-26T16:18:47;6.20;48.70